Time;durP1;ratioP1;P1;durP2;ratioP2;P2;SDS_P1;SDS_P2;PMS_P1;PMS_P2;Temp;Humidity;BMP_temperature;BMP_pressure;BME280_temperature;BME280_humidity;BME280_pressure;Samples;Min_cycle;Max_cycle;Signal;HPM_P1;HPM_P2
2021/08/01 00:01:38;;;;;;;;;;;20.30;91.60;;;;;;5072100;28;19908;-65
2021/08/01 00:04:04;;;;;;;;;;;20.20;91.50;;;;;;5072217;28;19909;-66
2021/08/01 00:06:31;;;;;;;;;;;20.30;91.50;;;;;;5072264;28;19924;-67
2021/08/01 00:08:58;;;;;;;;;;;20.50;91.10;;;;;;5071709;28;19908;-66
2021/08/01 00:11:24;;;;;;;;;;;20.50;91.20;;;;;;5072184;28;19915;-65
2021/08/01 00:13:51;;;;;;;;;;;20.60;91.40;;;;;;5072081;28;19962;-64
2021/08/01 00:16:17;;;;;;;;;;;20.80;90.80;;;;;;5072080;28;19996;-65
2021/08/01 00:18:44;;;;;;;;;;;20.80;90.80;;;;;;5072079;28;19961;-65
2021/08/01 00:21:11;;;;;;;;;;;20.90;90.30;;;;;;5071978;28;19934;-66
2021/08/01 00:23:37;;;;;;;;;;;20.80;90.40;;;;;;5071362;28;19951;-64
2021/08/01 00:26:04;;;;;;;;;;;20.90;90.50;;;;;;5071917;28;19916;-65
2021/08/01 00:28:31;;;;;;;;;;;20.90;90.20;;;;;;5072129;28;19908;-67
2021/08/01 00:31:00;;;;;;;;;;;20.90;90.30;;;;;;5072186;28;19915;-68
2021/08/01 00:33:27;;;;;;;;;;;20.80;90.10;;;;;;5072169;28;19908;-66
2021/08/01 00:35:53;;;;;;;;;;;20.90;90.00;;;;;;5071894;28;19915;-67
2021/08/01 00:38:20;;;;;;;;;;;20.90;90.20;;;;;;5071519;28;20010;-67
2021/08/01 00:40:47;;;;;;;;;;;20.80;90.10;;;;;;5071847;28;19909;-66
2021/08/01 00:43:13;;;;;;;;;;;20.80;90.10;;;;;;5071672;28;19915;-66
2021/08/01 00:45:41;;;;;;;;;;;20.90;90.20;;;;;;5071574;28;20351;-67
2021/08/01 00:48:12;;;;;;;;;;;20.90;90.20;;;;;;5072040;28;19908;-66
2021/08/01 00:50:40;;;;;;;;;;;20.90;90.10;;;;;;5071993;28;19936;-66
2021/08/01 00:53:08;;;;;;;;;;;21.00;90.10;;;;;;5070909;28;20414;-68
2021/08/01 00:55:35;;;;;;;;;;;20.90;90.10;;;;;;5071386;28;19909;-67
2021/08/01 00:58:01;;;;;;;;;;;20.80;90.20;;;;;;5071941;28;19948;-68
2021/08/01 01:00:44;;;;;;;;;;;20.90;90.50;;;;;;5074410;28;20339;-66
2021/08/01 01:03:17;;;;;;;;;;;20.80;90.70;;;;;;5078426;28;20325;-67
2021/08/01 01:06:10;;;;;;;;;;;21.00;90.20;;;;;;5077563;28;19920;-67
2021/08/01 01:08:55;;;;;;;;;;;21.00;90.20;;;;;;5101975;28;19909;-66
2021/08/01 01:11:24;;;;;;;;;;;21.20;90.40;;;;;;5076085;28;19931;-67
2021/08/01 01:13:52;;;;;;;;;;;21.30;89.70;;;;;;5075663;28;19980;-68
2021/08/01 01:16:19;;;;;;;;;;;21.30;89.80;;;;;;5076077;28;19941;-69
2021/08/01 01:18:50;;;;;;;;;;;21.30;89.50;;;;;;5074421;28;20327;-67
2021/08/01 01:21:23;;;;;;;;;;;21.30;89.10;;;;;;5074248;28;19955;-68
2021/08/01 01:23:53;;;;;;;;;;;21.20;89.70;;;;;;5073569;28;20038;-68
2021/08/01 01:26:25;;;;;;;;;;;21.20;89.70;;;;;;5073667;28;19970;-67
2021/08/01 01:28:51;;;;;;;;;;;21.20;90.00;;;;;;5073014;28;19916;-67
2021/08/01 01:31:25;;;;;;;;;;;21.10;90.00;;;;;;5072684;28;19908;-65
2021/08/01 01:34:07;;;;;;;;;;;21.10;90.10;;;;;;5072565;28;19915;-66
2021/08/01 01:36:35;;;;;;;;;;;21.10;90.00;;;;;;5072839;28;19954;-66
2021/08/01 01:39:03;;;;;;;;;;;21.20;90.00;;;;;;5072337;28;19916;-66
2021/08/01 01:41:30;;;;;;;;;;;21.30;89.70;;;;;;5072366;28;19912;-65
2021/08/01 01:43:57;;;;;;;;;;;21.50;89.60;;;;;;5072559;28;20369;-66
2021/08/01 01:46:24;;;;;;;;;;;21.50;90.10;;;;;;5072099;28;19928;-67
2021/08/01 01:48:52;;;;;;;;;;;21.60;88.90;;;;;;5072540;28;20264;-66
2021/08/01 01:51:19;;;;;;;;;;;21.70;88.80;;;;;;5072529;28;19908;-66
2021/08/01 01:53:46;;;;;;;;;;;21.70;88.90;;;;;;5071762;28;19989;-66
2021/08/01 01:56:14;;;;;;;;;;;21.70;89.00;;;;;;5072409;28;20602;-68
2021/08/01 01:58:41;;;;;;;;;;;21.70;88.80;;;;;;5072168;28;19912;-66
2021/08/01 02:01:07;;;;;;;;;;;21.70;89.10;;;;;;5071758;28;19932;-68
2021/08/01 02:03:34;;;;;;;;;;;21.70;89.20;;;;;;5071159;28;20368;-65
2021/08/01 02:06:01;;;;;;;;;;;21.70;89.30;;;;;;5072172;28;19920;-66
2021/08/01 02:08:42;;;;;;;;;;;21.70;89.30;;;;;;5071467;28;19912;-65
2021/08/01 02:11:10;;;;;;;;;;;21.70;89.60;;;;;;5071482;28;19909;-67
2021/08/01 02:13:41;;;;;;;;;;;21.70;90.00;;;;;;5071131;28;19912;-66
2021/08/01 02:16:09;;;;;;;;;;;21.80;90.00;;;;;;5072233;28;19951;-65
2021/08/01 02:18:45;;;;;;;;;;;22.00;89.10;;;;;;5070713;28;19913;-66
2021/08/01 02:21:12;;;;;;;;;;;22.10;88.70;;;;;;5071917;28;19950;-66
2021/08/01 02:23:43;;;;;;;;;;;22.10;89.20;;;;;;5070881;28;19915;-65
2021/08/01 02:26:11;;;;;;;;;;;22.00;89.30;;;;;;5071522;28;19928;-65
2021/08/01 02:28:38;;;;;;;;;;;21.90;89.30;;;;;;5071149;28;20309;-68
2021/08/01 02:31:06;;;;;;;;;;;21.90;89.80;;;;;;5071895;28;19915;-66
2021/08/01 02:33:33;;;;;;;;;;;21.90;89.70;;;;;;5071585;28;19909;-66
2021/08/01 02:36:01;;;;;;;;;;;22.00;89.90;;;;;;5071851;28;19944;-67
2021/08/01 02:38:28;;;;;;;;;;;22.20;89.40;;;;;;5071111;28;19915;-66
2021/08/01 02:40:56;;;;;;;;;;;22.40;89.30;;;;;;5071720;28;20310;-65
2021/08/01 02:43:26;;;;;;;;;;;22.50;88.40;;;;;;5071625;28;19934;-67
2021/08/01 02:45:53;;;;;;;;;;;22.60;88.40;;;;;;5071440;28;19923;-66
2021/08/01 02:48:21;;;;;;;;;;;22.60;88.40;;;;;;5071546;28;19932;-64
2021/08/01 02:50:53;;;;;;;;;;;22.60;87.50;;;;;;5070922;28;20003;-65
2021/08/01 02:53:19;;;;;;;;;;;22.50;88.10;;;;;;5071104;28;19912;-66
2021/08/01 02:55:48;;;;;;;;;;;22.50;88.50;;;;;;5071024;28;19943;-66
2021/08/01 02:58:17;;;;;;;;;;;22.50;87.20;;;;;;5071379;28;19919;-65
2021/08/01 03:00:46;;;;;;;;;;;22.70;84.20;;;;;;5071111;28;19919;-66
2021/08/01 03:03:15;;;;;;;;;;;22.80;84.10;;;;;;5072963;28;20797;-66
2021/08/01 03:05:44;;;;;;;;;;;22.80;84.70;;;;;;5077444;28;19963;-65
2021/08/01 03:08:14;;;;;;;;;;;22.80;84.90;;;;;;5071116;28;20355;-66
2021/08/01 03:10:44;;;;;;;;;;;22.70;85.10;;;;;;5103581;28;19960;-68
2021/08/01 03:13:11;;;;;;;;;;;22.60;85.60;;;;;;5071065;28;19955;-66
2021/08/01 03:15:38;;;;;;;;;;;22.50;85.20;;;;;;5070935;28;20006;-65
2021/08/01 03:18:05;;;;;;;;;;;22.50;84.20;;;;;;5070749;28;19918;-66
2021/08/01 03:20:32;;;;;;;;;;;22.40;84.60;;;;;;5070958;28;19914;-66
2021/08/01 03:22:58;;;;;;;;;;;22.40;84.20;;;;;;5103544;28;19912;-68
2021/08/01 03:25:25;;;;;;;;;;;22.30;84.80;;;;;;5070754;28;20037;-67
2021/08/01 03:27:52;;;;;;;;;;;22.30;85.30;;;;;;5070405;28;19920;-68
2021/08/01 03:30:18;;;;;;;;;;;22.20;85.70;;;;;;5070475;28;19954;-67
2021/08/01 03:32:45;;;;;;;;;;;22.10;86.10;;;;;;5070776;28;20087;-68
2021/08/01 03:35:12;;;;;;;;;;;22.00;86.20;;;;;;5070803;28;20363;-68
2021/08/01 03:37:38;;;;;;;;;;;21.90;86.00;;;;;;5070513;28;20010;-67
2021/08/01 03:40:05;;;;;;;;;;;21.90;86.10;;;;;;5070525;28;19991;-67
2021/08/01 03:42:32;;;;;;;;;;;21.80;85.70;;;;;;5070801;28;20152;-68
2021/08/01 03:44:59;;;;;;;;;;;21.80;86.10;;;;;;5070315;28;19920;-67
2021/08/01 03:47:25;;;;;;;;;;;21.70;85.20;;;;;;5070423;28;19932;-67
2021/08/01 03:49:52;;;;;;;;;;;21.70;84.10;;;;;;5070402;28;20121;-68
2021/08/01 03:52:19;;;;;;;;;;;21.70;85.40;;;;;;5070665;28;19909;-67
2021/08/01 03:54:45;;;;;;;;;;;21.40;91.40;;;;;;5070213;28;19965;-66
2021/08/01 03:57:15;;;;;;;;;;;21.10;92.30;;;;;;5070162;28;20286;-68
2021/08/01 03:59:41;;;;;;;;;;;20.90;92.70;;;;;;5070297;28;19920;-66
2021/08/01 04:02:08;;;;;;;;;;;20.80;92.90;;;;;;5070468;28;20443;-66
2021/08/01 04:04:35;;;;;;;;;;;20.60;93.50;;;;;;5070551;28;19909;-67
2021/08/01 04:07:02;;;;;;;;;;;20.40;93.90;;;;;;5070341;28;19990;-67
2021/08/01 04:09:29;;;;;;;;;;;20.40;94.10;;;;;;5070064;28;19919;-67
2021/08/01 04:11:56;;;;;;;;;;;20.20;94.60;;;;;;5070285;28;19912;-67
2021/08/01 04:14:24;;;;;;;;;;;20.20;95.00;;;;;;5070279;28;19909;-68
2021/08/01 04:16:50;;;;;;;;;;;20.10;91.80;;;;;;5070473;28;20484;-68
2021/08/01 04:19:17;;;;;;;;;;;20.20;87.10;;;;;;5070296;28;19913;-66
2021/08/01 04:21:45;;;;;;;;;;;20.30;84.10;;;;;;5070065;28;19999;-67
2021/08/01 04:24:12;;;;;;;;;;;20.30;84.10;;;;;;5069727;28;19913;-65
2021/08/01 04:26:38;;;;;;;;;;;20.20;84.10;;;;;;5070307;28;19962;-67
2021/08/01 04:29:06;;;;;;;;;;;20.20;84.00;;;;;;5070227;28;19952;-68
2021/08/01 04:31:33;;;;;;;;;;;20.20;83.60;;;;;;5069873;28;19978;-66
2021/08/01 04:33:59;;;;;;;;;;;20.20;84.40;;;;;;5070082;28;19909;-66
2021/08/01 04:36:26;;;;;;;;;;;20.20;83.60;;;;;;5072535;28;20005;-69
2021/08/01 04:38:53;;;;;;;;;;;20.00;84.30;;;;;;5074032;28;19967;-68
2021/08/01 04:41:19;;;;;;;;;;;20.00;84.10;;;;;;5074122;28;19909;-68
2021/08/01 04:43:46;;;;;;;;;;;20.00;84.40;;;;;;5073783;28;19920;-67
2021/08/01 04:46:13;;;;;;;;;;;20.00;84.80;;;;;;5074032;28;19921;-65
2021/08/01 04:48:39;;;;;;;;;;;20.00;84.90;;;;;;5073957;28;19999;-68
2021/08/01 04:51:06;;;;;;;;;;;20.10;85.00;;;;;;5073658;28;19915;-67
2021/08/01 04:53:33;;;;;;;;;;;20.00;85.00;;;;;;5073588;28;20386;-66
2021/08/01 04:56:00;;;;;;;;;;;20.00;84.80;;;;;;5073633;27;19912;-66
2021/08/01 04:58:26;;;;;;;;;;;19.90;84.80;;;;;;5073712;28;20391;-68
2021/08/01 05:00:53;;;;;;;;;;;19.80;85.00;;;;;;5073677;28;19965;-68
2021/08/01 05:03:20;;;;;;;;;;;19.80;85.10;;;;;;5073337;28;19909;-66
2021/08/01 05:05:46;;;;;;;;;;;19.70;84.90;;;;;;5072021;28;20363;-67
2021/08/01 05:08:13;;;;;;;;;;;19.70;84.30;;;;;;5073604;28;19920;-66
2021/08/01 05:10:40;;;;;;;;;;;19.80;84.30;;;;;;5073455;28;19912;-68
2021/08/01 05:13:07;;;;;;;;;;;19.80;84.80;;;;;;5073484;28;20371;-65
2021/08/01 05:15:34;;;;;;;;;;;19.80;84.70;;;;;;5072714;28;19916;-68
2021/08/01 05:18:02;;;;;;;;;;;19.80;84.10;;;;;;5073376;28;19916;-67
2021/08/01 05:20:28;;;;;;;;;;;19.70;83.50;;;;;;5073274;28;20371;-67
2021/08/01 05:22:55;;;;;;;;;;;19.70;82.90;;;;;;5073344;28;19923;-68
2021/08/01 05:25:21;;;;;;;;;;;19.60;83.50;;;;;;5073194;28;20374;-67
2021/08/01 05:27:48;;;;;;;;;;;19.60;84.00;;;;;;5072917;28;19962;-66
2021/08/01 05:30:15;;;;;;;;;;;19.60;82.40;;;;;;5073078;28;19908;-67
2021/08/01 05:32:41;;;;;;;;;;;19.60;82.40;;;;;;5073056;28;19916;-66
2021/08/01 05:35:08;;;;;;;;;;;19.50;81.80;;;;;;5073286;28;19908;-66
2021/08/01 05:37:35;;;;;;;;;;;19.50;81.50;;;;;;5072924;28;19912;-65
2021/08/01 05:40:02;;;;;;;;;;;19.50;81.50;;;;;;5073008;28;19916;-65
2021/08/01 05:42:28;;;;;;;;;;;19.50;81.20;;;;;;5072794;28;19920;-64
2021/08/01 05:44:55;;;;;;;;;;;19.40;81.60;;;;;;5072681;28;19920;-66
2021/08/01 05:47:21;;;;;;;;;;;19.40;82.20;;;;;;5071539;28;20405;-67
2021/08/01 05:49:48;;;;;;;;;;;19.30;82.70;;;;;;5072761;28;19913;-66
2021/08/01 05:52:15;;;;;;;;;;;19.30;82.20;;;;;;5073320;28;19916;-65
2021/08/01 05:54:42;;;;;;;;;;;19.30;82.60;;;;;;5074640;28;20256;-67
2021/08/01 05:57:09;;;;;;;;;;;19.30;83.20;;;;;;5074693;28;19915;-66
2021/08/01 05:59:35;;;;;;;;;;;19.30;83.10;;;;;;5074492;28;19913;-67
2021/08/01 06:02:02;;;;;;;;;;;19.20;83.80;;;;;;5074474;28;20003;-67
2021/08/01 06:04:29;;;;;;;;;;;19.20;84.00;;;;;;5074315;28;19961;-65
2021/08/01 06:06:55;;;;;;;;;;;19.20;84.10;;;;;;5074584;28;20013;-64
2021/08/01 06:09:22;;;;;;;;;;;19.20;83.90;;;;;;5074180;28;19915;-64
2021/08/01 06:11:49;;;;;;;;;;;19.20;84.10;;;;;;5074262;28;19908;-65
2021/08/01 06:14:15;;;;;;;;;;;19.20;84.70;;;;;;5074497;28;19958;-64
2021/08/01 06:16:42;;;;;;;;;;;19.10;83.60;;;;;;5074306;28;20377;-66
2021/08/01 06:19:08;;;;;;;;;;;19.10;83.00;;;;;;5074346;28;19962;-67
2021/08/01 06:21:36;;;;;;;;;;;19.10;82.10;;;;;;5074097;28;19918;-67
2021/08/01 06:24:02;;;;;;;;;;;19.00;82.10;;;;;;5074087;28;20381;-65
2021/08/01 06:26:29;;;;;;;;;;;19.00;82.50;;;;;;5074246;28;19916;-65
2021/08/01 06:28:56;;;;;;;;;;;19.00;81.00;;;;;;5074037;28;19912;-67
2021/08/01 06:31:22;;;;;;;;;;;18.90;80.80;;;;;;5074109;28;19909;-68
2021/08/01 06:33:49;;;;;;;;;;;18.90;81.10;;;;;;5073740;28;19915;-66
2021/08/01 06:36:16;;;;;;;;;;;18.90;81.20;;;;;;5073909;28;19912;-66
2021/08/01 06:38:44;;;;;;;;;;;18.90;80.90;;;;;;5073885;28;19916;-66
2021/08/01 06:41:11;;;;;;;;;;;18.90;81.40;;;;;;5073950;28;19909;-65
2021/08/01 06:43:37;;;;;;;;;;;18.80;80.80;;;;;;5073404;28;19920;-67
2021/08/01 06:46:04;;;;;;;;;;;18.90;81.20;;;;;;5073911;28;19923;-67
2021/08/01 06:48:31;;;;;;;;;;;18.90;82.30;;;;;;5073964;28;19987;-68
2021/08/01 06:50:58;;;;;;;;;;;18.90;80.90;;;;;;5073742;28;20006;-66
2021/08/01 06:53:27;;;;;;;;;;;18.80;81.40;;;;;;5073446;28;19916;-69
2021/08/01 06:55:53;;;;;;;;;;;18.80;82.50;;;;;;5073405;28;19915;-65
2021/08/01 06:58:20;;;;;;;;;;;18.80;81.50;;;;;;5073047;28;19908;-67
2021/08/01 07:00:47;;;;;;;;;;;18.80;81.60;;;;;;5073391;28;19955;-68
2021/08/01 07:03:14;;;;;;;;;;;18.80;81.90;;;;;;5073420;28;19954;-68
2021/08/01 07:05:41;;;;;;;;;;;18.70;82.10;;;;;;5073038;28;19995;-67
2021/08/01 07:08:07;;;;;;;;;;;18.70;82.10;;;;;;5073369;28;19961;-68
2021/08/01 07:10:34;;;;;;;;;;;18.70;83.20;;;;;;5073348;28;19943;-67
2021/08/01 07:13:04;;;;;;;;;;;18.70;82.70;;;;;;5086435;28;20264;-67
2021/08/01 07:15:31;;;;;;;;;;;18.70;82.80;;;;;;5093388;28;19974;-66
2021/08/01 07:17:58;;;;;;;;;;;18.60;82.60;;;;;;5093379;28;20003;-67
2021/08/01 07:20:25;;;;;;;;;;;18.60;82.20;;;;;;5093364;28;19915;-67
2021/08/01 07:22:52;;;;;;;;;;;18.60;82.70;;;;;;5093112;28;19962;-65
2021/08/01 07:25:19;;;;;;;;;;;18.60;82.50;;;;;;5092613;28;19956;-68
2021/08/01 07:27:46;;;;;;;;;;;18.60;81.60;;;;;;5092931;28;19920;-63
2021/08/01 07:30:13;;;;;;;;;;;18.50;82.10;;;;;;5093124;28;19908;-66
2021/08/01 07:32:39;;;;;;;;;;;18.50;82.00;;;;;;5093448;28;20275;-65
2021/08/01 07:35:06;;;;;;;;;;;18.50;81.40;;;;;;5093022;28;19933;-65
2021/08/01 07:37:33;;;;;;;;;;;18.40;81.20;;;;;;5092728;28;19914;-65
2021/08/01 07:40:00;;;;;;;;;;;18.40;81.30;;;;;;5092549;28;19915;-65
2021/08/01 07:42:27;;;;;;;;;;;18.40;80.90;;;;;;5092706;28;19908;-65
2021/08/01 07:45:01;;;;;;;;;;;18.30;81.00;;;;;;5092734;28;19920;-65
2021/08/01 07:47:30;;;;;;;;;;;18.30;81.10;;;;;;5092960;28;19916;-65
2021/08/01 07:49:56;;;;;;;;;;;18.30;82.10;;;;;;5092803;28;19911;-64
2021/08/01 07:52:27;;;;;;;;;;;18.40;81.60;;;;;;5091998;28;20069;-64
2021/08/01 07:54:53;;;;;;;;;;;18.30;81.60;;;;;;5092379;28;20331;-66
2021/08/01 07:57:26;;;;;;;;;;;18.30;82.10;;;;;;5092626;28;19909;-65
2021/08/01 07:59:53;;;;;;;;;;;18.30;82.20;;;;;;5093031;28;19987;-65
2021/08/01 08:02:20;;;;;;;;;;;18.30;81.70;;;;;;5092937;28;20271;-65
2021/08/01 08:04:47;;;;;;;;;;;18.20;81.70;;;;;;5092969;28;19995;-65
2021/08/01 08:07:13;;;;;;;;;;;18.20;82.10;;;;;;5092498;28;21333;-65
2021/08/01 08:09:40;;;;;;;;;;;17.90;91.00;;;;;;5091637;28;19999;-65
2021/08/01 08:12:07;;;;;;;;;;;17.50;95.20;;;;;;5092243;28;20326;-65
2021/08/01 08:14:34;;;;;;;;;;;17.30;97.10;;;;;;5092439;28;19909;-65
2021/08/01 08:17:00;;;;;;;;;;;16.90;98.80;;;;;;5092526;28;19908;-65
2021/08/01 08:19:27;;;;;;;;;;;16.40;99.80;;;;;;5092430;28;20326;-66
2021/08/01 08:21:56;;;;;;;;;;;16.10;99.90;;;;;;5092323;28;19950;-66
2021/08/01 08:24:23;;;;;;;;;;;15.80;99.90;;;;;;5092385;28;19915;-66
2021/08/01 08:26:50;;;;;;;;;;;15.70;99.90;;;;;;5092185;28;19924;-66
2021/08/01 08:29:16;;;;;;;;;;;15.60;99.90;;;;;;5092243;28;19908;-66
2021/08/01 08:31:52;;;;;;;;;;;15.40;99.90;;;;;;5092137;28;19996;-65
2021/08/01 08:34:20;;;;;;;;;;;15.30;99.90;;;;;;5092625;28;19909;-65
2021/08/01 08:36:50;;;;;;;;;;;15.20;99.90;;;;;;5092316;28;20399;-65
2021/08/01 08:39:18;;;;;;;;;;;15.10;99.90;;;;;;5092342;28;19994;-65
2021/08/01 08:41:45;;;;;;;;;;;15.00;99.90;;;;;;5091388;28;19912;-65
2021/08/01 08:44:12;;;;;;;;;;;14.90;99.90;;;;;;5092032;28;20270;-65
2021/08/01 08:46:41;;;;;;;;;;;14.90;99.90;;;;;;5092057;28;19916;-66
2021/08/01 08:49:11;;;;;;;;;;;14.80;99.90;;;;;;5092112;28;19908;-67
2021/08/01 08:51:38;;;;;;;;;;;14.70;99.90;;;;;;5092205;28;19909;-66
2021/08/01 08:54:29;;;;;;;;;;;14.70;99.90;;;;;;5091900;28;19967;-68
2021/08/01 08:56:56;;;;;;;;;;;14.70;99.90;;;;;;5089043;28;19912;-65
2021/08/01 08:59:23;;;;;;;;;;;14.60;99.90;;;;;;5092009;28;20335;-67
2021/08/01 09:01:50;;;;;;;;;;;14.60;99.90;;;;;;5124410;28;20406;-66
2021/08/01 09:04:16;;;;;;;;;;;14.50;99.90;;;;;;5091993;28;19915;-64
2021/08/01 09:06:43;;;;;;;;;;;14.50;99.90;;;;;;5091902;28;19916;-65
2021/08/01 09:09:13;;;;;;;;;;;14.50;99.90;;;;;;5091228;28;19962;-68
2021/08/01 09:11:40;;;;;;;;;;;14.40;99.90;;;;;;5091603;28;19939;-66
2021/08/01 09:14:17;;;;;;;;;;;14.40;99.90;;;;;;5091903;28;20325;-67
2021/08/01 09:16:45;;;;;;;;;;;14.40;99.90;;;;;;5091945;28;20279;-66
2021/08/01 09:19:24;;;;;;;;;;;14.40;99.90;;;;;;5091817;28;20256;-67
2021/08/01 09:21:50;;;;;;;;;;;14.40;99.90;;;;;;5093251;28;19912;-66
2021/08/01 09:24:17;;;;;;;;;;;14.40;99.90;;;;;;5094726;28;20309;-66
2021/08/01 09:26:45;;;;;;;;;;;14.30;99.90;;;;;;5095204;28;19917;-65
2021/08/01 09:29:11;;;;;;;;;;;14.30;99.90;;;;;;5094158;28;19912;-65
2021/08/01 09:31:38;;;;;;;;;;;14.30;99.90;;;;;;5093837;28;20042;-67
2021/08/01 09:34:25;;;;;;;;;;;14.30;99.90;;;;;;5127974;27;19915;-65
2021/08/01 09:36:56;;;;;;;;;;;14.30;99.90;;;;;;5095327;28;19908;-66
2021/08/01 09:39:23;;;;;;;;;;;14.30;99.90;;;;;;5094513;28;19908;-67
2021/08/01 09:41:54;;;;;;;;;;;14.30;99.90;;;;;;5095016;28;19953;-65
2021/08/01 09:44:20;;;;;;;;;;;14.30;99.90;;;;;;5095127;28;19927;-65
2021/08/01 09:46:48;;;;;;;;;;;14.30;99.90;;;;;;5094929;28;19923;-65
2021/08/01 09:49:15;;;;;;;;;;;14.30;99.90;;;;;;5094916;28;20423;-65
2021/08/01 09:51:43;;;;;;;;;;;14.20;99.90;;;;;;5094820;28;19908;-65
2021/08/01 09:54:10;;;;;;;;;;;14.20;99.90;;;;;;5094287;28;19922;-67
2021/08/01 09:56:51;;;;;;;;;;;14.20;99.90;;;;;;5095037;28;20296;-68
2021/08/01 09:59:19;;;;;;;;;;;14.20;99.90;;;;;;5094745;28;19991;-67
2021/08/01 10:01:50;;;;;;;;;;;14.10;99.90;;;;;;5094449;28;19918;-66
2021/08/01 10:04:27;;;;;;;;;;;14.20;99.90;;;;;;5094715;28;19908;-66
2021/08/01 10:07:12;;;;;;;;;;;14.10;99.90;;;;;;5094516;28;19916;-67
2021/08/01 10:09:45;;;;;;;;;;;14.10;99.90;;;;;;5092568;28;20439;-66
2021/08/01 10:12:12;;;;;;;;;;;14.00;99.90;;;;;;5094799;28;19915;-65
2021/08/01 10:14:45;;;;;;;;;;;13.90;99.90;;;;;;5094808;28;19948;-68
2021/08/01 10:17:18;;;;;;;;;;;13.90;99.90;;;;;;5094596;28;19914;-65
2021/08/01 10:19:44;;;;;;;;;;;13.90;99.90;;;;;;5094257;28;20259;-65
2021/08/01 10:22:11;;;;;;;;;;;13.80;99.90;;;;;;5094568;28;19962;-67
2021/08/01 10:24:39;;;;;;;;;;;13.80;99.90;;;;;;5094524;28;19965;-68
2021/08/01 10:27:09;;;;;;;;;;;13.80;99.90;;;;;;5094299;28;19959;-69
2021/08/01 10:29:35;;;;;;;;;;;13.90;99.90;;;;;;5094293;28;19912;-66
2021/08/01 10:32:07;;;;;;;;;;;13.90;99.90;;;;;;5094205;28;19908;-67
2021/08/01 10:34:35;;;;;;;;;;;13.90;99.90;;;;;;5093570;28;20418;-69
2021/08/01 10:37:05;;;;;;;;;;;13.80;99.90;;;;;;5094110;28;19934;-68
2021/08/01 10:39:36;;;;;;;;;;;13.80;99.90;;;;;;5093975;28;19908;-68
2021/08/01 10:42:06;;;;;;;;;;;13.90;99.90;;;;;;5094250;28;19912;-68
2021/08/01 10:44:35;;;;;;;;;;;13.90;99.90;;;;;;5094189;28;19920;-68
2021/08/01 10:47:06;;;;;;;;;;;13.90;99.90;;;;;;5074091;28;20355;-66
2021/08/01 10:49:35;;;;;;;;;;;13.90;99.90;;;;;;5073565;28;19912;-68
2021/08/01 10:52:05;;;;;;;;;;;13.90;99.90;;;;;;5073486;28;20363;-67
2021/08/01 10:54:32;;;;;;;;;;;13.80;99.90;;;;;;5073779;28;20379;-67
2021/08/01 10:57:14;;;;;;;;;;;13.80;99.90;;;;;;5106256;28;20248;-70
2021/08/01 10:59:44;;;;;;;;;;;13.80;99.90;;;;;;5072663;28;19916;-65
2021/08/01 11:02:12;;;;;;;;;;;13.80;99.90;;;;;;5073436;28;19940;-68
2021/08/01 11:04:38;;;;;;;;;;;13.80;99.90;;;;;;5073493;28;19908;-66
2021/08/01 11:07:10;;;;;;;;;;;13.70;99.90;;;;;;5073093;28;19939;-64
2021/08/01 11:09:36;;;;;;;;;;;13.70;99.90;;;;;;5073201;28;19908;-68
2021/08/01 11:12:21;;;;;;;;;;;13.60;99.90;;;;;;5073193;28;20339;-67
2021/08/01 11:14:49;;;;;;;;;;;13.60;99.90;;;;;;5072849;28;19909;-68
2021/08/01 11:17:20;;;;;;;;;;;13.60;99.90;;;;;;5073124;28;19913;-67
2021/08/01 11:19:48;;;;;;;;;;;13.60;99.90;;;;;;5072978;28;20278;-68
2021/08/01 11:22:33;;;;;;;;;;;13.60;99.90;;;;;;5072932;28;19916;-67
2021/08/01 11:25:18;;;;;;;;;;;13.50;99.90;;;;;;5073000;28;19908;-68
2021/08/01 11:28:03;;;;;;;;;;;13.50;99.90;;;;;;5072694;28;19920;-68
2021/08/01 11:30:49;;;;;;;;;;;13.40;99.90;;;;;;5072492;28;20319;-68
2021/08/01 11:33:45;;;;;;;;;;;13.30;99.90;;;;;;5072820;28;19908;-68
2021/08/01 11:36:18;;;;;;;;;;;13.20;99.90;;;;;;5068143;28;19908;-68
2021/08/01 11:38:54;;;;;;;;;;;13.20;99.90;;;;;;5072676;28;19962;-69
2021/08/01 11:41:33;;;;;;;;;;;13.20;99.90;;;;;;5072877;28;19908;-69
2021/08/01 11:44:04;;;;;;;;;;;13.20;99.90;;;;;;5071994;28;19913;-66
2021/08/01 11:46:54;;;;;;;;;;;13.10;99.90;;;;;;5072650;28;19982;-69
2021/08/01 11:49:24;;;;;;;;;;;13.10;99.90;;;;;;5068961;28;20335;-67
2021/08/01 11:51:55;;;;;;;;;;;13.00;99.90;;;;;;5072362;28;19966;-68
2021/08/01 11:54:41;;;;;;;;;;;13.00;99.90;;;;;;5072729;28;19994;-69
2021/08/01 11:57:09;;;;;;;;;;;13.00;99.90;;;;;;5072621;28;19915;-69
2021/08/01 11:59:35;;;;;;;;;;;13.00;99.90;;;;;;5070562;28;19981;-69
2021/08/01 12:02:06;;;;;;;;;;;13.00;99.90;;;;;;5072579;28;19912;-67
2021/08/01 12:04:33;;;;;;;;;;;13.00;99.90;;;;;;5072526;28;19909;-67
2021/08/01 12:07:00;;;;;;;;;;;13.10;99.90;;;;;;5072352;28;20355;-70
2021/08/01 12:09:27;;;;;;;;;;;13.00;99.90;;;;;;5072623;28;19916;-68
2021/08/01 12:11:55;;;;;;;;;;;13.00;99.90;;;;;;5072112;28;19913;-70
2021/08/01 12:14:25;;;;;;;;;;;13.00;99.90;;;;;;5071758;28;19913;-67
2021/08/01 12:16:53;;;;;;;;;;;13.00;99.90;;;;;;5072193;28;19915;-68
2021/08/01 12:19:20;;;;;;;;;;;13.00;99.90;;;;;;5072448;28;20003;-68
2021/08/01 12:21:48;;;;;;;;;;;12.90;99.90;;;;;;5072051;28;19909;-67
2021/08/01 12:24:29;;;;;;;;;;;12.90;99.90;;;;;;5073165;28;19908;-67
2021/08/01 12:27:00;;;;;;;;;;;12.90;99.90;;;;;;5072214;28;19921;-68
2021/08/01 12:29:28;;;;;;;;;;;12.90;99.90;;;;;;5071991;28;19949;-69
2021/08/01 12:31:55;;;;;;;;;;;12.90;99.90;;;;;;5072291;28;20174;-67
2021/08/01 12:34:22;;;;;;;;;;;12.80;99.90;;;;;;5072169;28;19971;-67
2021/08/01 12:36:49;;;;;;;;;;;12.80;99.90;;;;;;5071649;28;20003;-67
2021/08/01 12:39:18;;;;;;;;;;;12.80;99.90;;;;;;5072072;28;19912;-67
2021/08/01 12:41:48;;;;;;;;;;;12.80;99.90;;;;;;5072044;28;19909;-68
2021/08/01 12:44:15;;;;;;;;;;;12.70;99.90;;;;;;5071924;28;19955;-67
2021/08/01 12:46:42;;;;;;;;;;;12.80;99.90;;;;;;5071810;28;19928;-68
2021/08/01 12:49:10;;;;;;;;;;;12.70;99.90;;;;;;5072055;28;19909;-65
2021/08/01 12:51:39;;;;;;;;;;;12.60;99.70;;;;;;5071690;28;19914;-66
2021/08/01 12:54:06;;;;;;;;;;;12.60;99.50;;;;;;5072185;28;19914;-65
2021/08/01 12:56:33;;;;;;;;;;;12.70;99.80;;;;;;5073340;28;19915;-68
2021/08/01 12:59:12;;;;;;;;;;;12.70;99.30;;;;;;5076060;28;20218;-68
2021/08/01 13:01:43;;;;;;;;;;;12.70;99.30;;;;;;5075920;28;20359;-68
2021/08/01 13:04:10;;;;;;;;;;;12.70;99.60;;;;;;5076221;28;19908;-68
2021/08/01 13:06:37;;;;;;;;;;;12.70;99.50;;;;;;5075951;28;19916;-68
2021/08/01 13:09:06;;;;;;;;;;;12.70;99.60;;;;;;5075831;28;20347;-67
2021/08/01 13:11:33;;;;;;;;;;;12.80;99.20;;;;;;5075572;28;20484;-68
2021/08/01 13:14:00;;;;;;;;;;;12.70;99.00;;;;;;5076145;28;19938;-65
2021/08/01 13:16:47;;;;;;;;;;;12.70;99.10;;;;;;5078026;28;19909;-66
2021/08/01 13:19:14;;;;;;;;;;;12.70;99.10;;;;;;5076247;28;19912;-68
2021/08/01 13:21:41;;;;;;;;;;;12.70;99.20;;;;;;5075464;28;19912;-66
2021/08/01 13:24:14;;;;;;;;;;;12.70;99.30;;;;;;5075700;28;19921;-66
2021/08/01 13:26:42;;;;;;;;;;;12.70;99.20;;;;;;5075800;28;19924;-67
2021/08/01 13:29:08;;;;;;;;;;;12.70;99.00;;;;;;5075363;28;19909;-66
2021/08/01 13:31:35;;;;;;;;;;;12.70;98.90;;;;;;5075066;28;20247;-64
2021/08/01 13:34:03;;;;;;;;;;;12.70;98.90;;;;;;5075085;28;20313;-64
2021/08/01 13:36:48;;;;;;;;;;;12.70;99.00;;;;;;5075087;28;19915;-65
2021/08/01 13:39:16;;;;;;;;;;;12.70;99.00;;;;;;5075412;28;20317;-67
2021/08/01 13:41:43;;;;;;;;;;;12.70;98.90;;;;;;5075016;28;19915;-66
2021/08/01 13:44:09;;;;;;;;;;;12.70;99.10;;;;;;5074894;28;20259;-65
2021/08/01 13:46:36;;;;;;;;;;;12.60;99.10;;;;;;5074857;28;20294;-65
2021/08/01 13:49:03;;;;;;;;;;;12.50;99.30;;;;;;5075015;28;19912;-66
2021/08/01 13:51:33;;;;;;;;;;;12.60;99.20;;;;;;5074677;28;19916;-65
2021/08/01 13:54:00;;;;;;;;;;;12.60;99.20;;;;;;5074924;28;20009;-65
2021/08/01 13:56:27;;;;;;;;;;;12.60;99.00;;;;;;5074734;28;19908;-65
2021/08/01 13:58:55;;;;;;;;;;;12.60;98.80;;;;;;5074753;28;19954;-68
2021/08/01 14:01:23;;;;;;;;;;;12.60;98.90;;;;;;5075277;28;19913;-65
2021/08/01 14:03:51;;;;;;;;;;;12.60;98.90;;;;;;5074689;28;20424;-66
2021/08/01 14:06:18;;;;;;;;;;;12.50;99.00;;;;;;5106747;28;20419;-65
2021/08/01 14:08:45;;;;;;;;;;;12.50;98.90;;;;;;5073377;28;19908;-68
2021/08/01 14:11:13;;;;;;;;;;;12.50;98.90;;;;;;5074476;28;19916;-65
2021/08/01 14:13:39;;;;;;;;;;;12.40;98.90;;;;;;5074180;28;19953;-65
2021/08/01 14:16:06;;;;;;;;;;;12.40;98.80;;;;;;5074447;28;19916;-65
2021/08/01 14:18:32;;;;;;;;;;;12.40;99.00;;;;;;5074452;28;19915;-67
2021/08/01 14:20:59;;;;;;;;;;;12.40;99.00;;;;;;5073048;28;19908;-65
2021/08/01 14:23:27;;;;;;;;;;;12.30;99.00;;;;;;5074184;28;19912;-65
2021/08/01 14:25:55;;;;;;;;;;;12.30;99.10;;;;;;5074268;28;20275;-66